Time;durP1;ratioP1;P1;durP2;ratioP2;P2;SDS_P1;SDS_P2;PMS_P1;PMS_P2;Temp;Humidity;BMP_temperature;BMP_pressure;BME280_temperature;BME280_humidity;BME280_pressure;Samples;Min_cycle;Max_cycle;Signal;HPM_P1;HPM_P2
2023/06/21 00:01:15;;;;;;;5.97;4.50;;;;;;;23.90;60.86;101176.94;5025639;28;20036;-49
2023/06/21 00:03:40;;;;;;;5.38;4.30;;;;;;;23.89;61.48;101177.97;5023330;28;20036;-44
2023/06/21 00:06:06;;;;;;;6.68;4.72;;;;;;;23.89;61.10;101182.56;5021092;28;20032;-49
2023/06/21 00:08:32;;;;;;;7.80;4.90;;;;;;;23.88;61.01;101191.75;5024857;28;20128;-48
2023/06/21 00:10:59;;;;;;;5.30;4.78;;;;;;;23.87;60.87;101179.16;5021459;28;20380;-48
2023/06/21 00:13:24;;;;;;;7.40;5.45;;;;;;;23.87;61.48;101176.44;5020518;28;20060;-50
2023/06/21 00:15:50;;;;;;;5.35;4.45;;;;;;;23.87;61.12;101179.16;5021203;28;20117;-46
2023/06/21 00:18:16;;;;;;;5.38;4.88;;;;;;;23.86;61.50;101191.09;5019249;28;20048;-50
2023/06/21 00:20:41;;;;;;;5.65;5.13;;;;;;;23.84;61.48;101191.25;5022115;28;20046;-47
2023/06/21 00:23:08;;;;;;;6.72;5.28;;;;;;;23.85;61.22;101194.81;5018327;28;20030;-49
2023/06/21 00:25:34;;;;;;;7.20;4.80;;;;;;;23.84;61.00;101198.56;5022145;28;20108;-48
2023/06/21 00:27:59;;;;;;;5.78;5.15;;;;;;;23.83;61.17;101199.59;5020872;28;20088;-47
2023/06/21 00:30:24;;;;;;;6.72;4.90;;;;;;;23.83;61.41;101196.88;5023751;28;20037;-47
2023/06/21 00:32:50;;;;;;;7.07;5.43;;;;;;;23.80;61.06;101189.94;5021820;28;20033;-48
2023/06/21 00:35:15;;;;;;;5.90;5.30;;;;;;;23.80;61.22;101193.47;5020791;28;20076;-49
2023/06/21 00:37:40;;;;;;;7.78;4.97;;;;;;;23.78;61.11;101192.81;5021799;28;20503;-48
2023/06/21 00:40:14;;;;;;;7.03;5.43;;;;;;;23.78;61.57;101195.53;5022335;28;20124;-49
2023/06/21 00:42:40;;;;;;;6.03;5.03;;;;;;;23.79;61.15;101193.66;5020646;28;20040;-46
2023/06/21 00:45:06;;;;;;;6.90;5.15;;;;;;;23.77;60.98;101193.78;5021767;28;20050;-46
2023/06/21 00:47:31;;;;;;;9.68;5.18;;;;;;;23.76;61.46;101205.72;5021355;28;20042;-47
2023/06/21 00:49:57;;;;;;;6.07;5.47;;;;;;;23.77;61.30;101204.66;5020992;28;20385;-49
2023/06/21 00:52:23;;;;;;;8.32;6.05;;;;;;;23.75;61.27;101200.44;5021063;28;20079;-48
2023/06/21 00:54:49;;;;;;;5.82;5.05;;;;;;;23.75;61.27;101200.44;5020544;28;20048;-49
2023/06/21 00:57:14;;;;;;;7.32;5.63;;;;;;;23.73;61.54;101195.16;5021791;28;20120;-48
2023/06/21 00:59:39;;;;;;;7.13;5.45;;;;;;;23.73;61.14;101197.91;5024629;28;20033;-49
2023/06/21 01:02:05;;;;;;;7.00;5.43;;;;;;;23.73;61.41;101197.06;5017429;28;20208;-47
2023/06/21 01:04:33;;;;;;;7.25;5.30;;;;;;;23.72;61.60;101209.81;5021702;28;20167;-49
2023/06/21 01:07:31;;;;;;;11.50;5.95;;;;;;;23.75;61.49;101217.59;5018696;28;20441;-48
2023/06/21 01:10:10;;;;;;;6.53;5.78;;;;;;;23.71;61.67;101209.97;5018839;28;20522;-48
2023/06/21 01:13:04;;;;;;;8.43;5.97;;;;;;;23.70;61.35;101219.16;5017891;28;20075;-49
2023/06/21 01:15:36;;;;;;;7.30;5.35;;;;;;;23.69;61.38;101222.91;5020756;28;20041;-48
2023/06/21 01:18:06;;;;;;;6.43;5.80;;;;;;;23.67;61.13;101220.34;5017737;28;20112;-48
2023/06/21 01:20:34;;;;;;;7.85;6.20;;;;;;;23.67;61.54;101217.63;5023611;28;20049;-49
2023/06/21 01:23:12;;;;;;;6.03;5.43;;;;;;;23.67;61.50;101205.91;5021555;28;20375;-49
2023/06/21 01:26:06;;;;;;;6.47;5.78;;;;;;;23.67;61.08;101214.91;5020674;28;20041;-49
2023/06/21 01:28:53;;;;;;;6.70;5.43;;;;;;;23.64;61.41;101220.69;5019652;28;20033;-46
2023/06/21 01:31:20;;;;;;;6.68;6.00;;;;;;;23.63;61.43;101221.72;5023853;28;20034;-47
2023/06/21 01:33:46;;;;;;;6.40;5.80;;;;;;;23.62;61.53;101228.19;5021233;28;20480;-50
2023/06/21 01:36:12;;;;;;;6.10;4.82;;;;;;;23.62;61.44;101220.03;5020805;28;20033;-49
2023/06/21 01:38:37;;;;;;;6.47;5.32;;;;;;;23.60;61.85;101225.63;5020007;28;20467;-48
2023/06/21 01:41:03;;;;;;;6.38;5.70;;;;;;;23.60;61.50;101227.50;5021014;28;20150;-46
2023/06/21 01:43:30;;;;;;;7.78;5.75;;;;;;;23.60;61.14;101233.78;5021191;28;20032;-49
2023/06/21 01:45:58;;;;;;;7.38;5.57;;;;;;;23.59;61.73;101232.09;5021627;28;20064;-49
2023/06/21 01:48:24;;;;;;;6.47;5.78;;;;;;;23.59;61.87;101240.25;5019534;28;20029;-47
2023/06/21 01:50:51;;;;;;;7.47;6.15;;;;;;;23.57;61.07;101236.00;5019871;28;20121;-50
2023/06/21 01:53:19;;;;;;;7.03;5.60;;;;;;;23.55;61.78;101227.16;5020701;28;20029;-44
2023/06/21 01:55:48;;;;;;;6.25;5.65;;;;;;;23.56;61.50;101228.88;5015640;28;20049;-49
2023/06/21 01:58:15;;;;;;;8.45;6.43;;;;;;;23.55;61.60;101232.59;5019938;28;20037;-49
2023/06/21 02:00:41;;;;;;;7.05;6.00;;;;;;;23.54;61.39;101236.38;5020138;28;21905;-49
2023/06/21 02:03:09;;;;;;;7.78;5.53;;;;;;;23.53;61.56;101238.25;5022782;28;20065;-49
2023/06/21 02:05:35;;;;;;;7.57;6.07;;;;;;;23.54;61.82;101244.50;5017388;28;20046;-49
2023/06/21 02:08:04;;;;;;;6.65;5.88;;;;;;;23.53;61.61;101253.69;5019410;28;20054;-50
2023/06/21 02:10:31;;;;;;;6.07;5.53;;;;;;;23.52;61.30;101249.28;5020155;28;20037;-46
2023/06/21 02:12:57;;;;;;;6.22;5.57;;;;;;;23.51;61.15;101247.56;5019953;28;20033;-49
2023/06/21 02:15:23;;;;;;;9.02;6.07;;;;;;;23.51;61.49;101244.84;5014703;28;20396;-50
2023/06/21 02:17:49;;;;;;;9.80;6.05;;;;;;;23.50;61.31;101248.59;5021052;28;20130;-49
2023/06/21 02:20:16;;;;;;;8.30;6.35;;;;;;;23.50;60.97;101248.59;5021425;28;20483;-49
2023/06/21 02:22:43;;;;;;;6.30;5.60;;;;;;;23.49;61.63;101257.75;5020743;28;20079;-48
2023/06/21 02:25:09;;;;;;;6.72;5.82;;;;;;;23.47;61.51;101255.22;5019066;28;20124;-48
2023/06/21 02:27:34;;;;;;;10.45;6.68;;;;;;;23.47;61.79;101257.94;5019273;28;20104;-49
2023/06/21 02:30:00;;;;;;;9.27;6.45;;;;;;;23.47;61.79;101263.38;5021271;28;20452;-47
2023/06/21 02:32:25;;;;;;;6.68;5.68;;;;;;;23.47;61.49;101273.41;5020897;28;20131;-50
2023/06/21 02:34:51;;;;;;;7.75;6.05;;;;;;;23.45;61.00;101262.69;5019552;28;20021;-49
2023/06/21 02:37:16;;;;;;;6.95;6.25;;;;;;;23.45;61.02;101268.13;5020257;28;20075;-49
2023/06/21 02:39:42;;;;;;;8.60;5.72;;;;;;;23.46;60.82;101271.72;5017909;28;20396;-49
2023/06/21 02:42:07;;;;;;;9.65;6.43;;;;;;;23.44;61.75;101285.47;5019897;28;20034;-48
2023/06/21 02:44:32;;;;;;;7.38;6.40;;;;;;;23.43;61.27;101283.75;5020072;28;20438;-46
2023/06/21 02:46:58;;;;;;;9.43;6.53;;;;;;;23.43;61.56;101287.31;5020577;28;20044;-49
2023/06/21 02:49:24;;;;;;;7.20;6.50;;;;;;;23.42;61.30;101288.34;5018563;28;20034;-50
2023/06/21 02:51:52;;;;;;;7.50;6.70;;;;;;;23.41;61.21;101283.94;5023281;28;20054;-48
2023/06/21 02:54:18;;;;;;;7.30;6.25;;;;;;;23.41;61.52;101292.09;5019810;28;20041;-48
2023/06/21 02:56:44;;;;;;;7.45;6.60;;;;;;;23.40;61.35;101284.97;5017215;28;20116;-46
2023/06/21 02:59:10;;;;;;;7.30;5.63;;;;;;;23.39;61.26;101293.28;5019421;28;20108;-45
2023/06/21 03:01:36;;;;;;;9.18;6.20;;;;;;;23.38;61.22;101299.72;5017416;28;20022;-49
2023/06/21 03:04:01;;;;;;;8.32;6.25;;;;;;;23.37;61.52;101307.03;5019048;28;20033;-49
2023/06/21 03:06:29;;;;;;;10.10;6.47;;;;;;;23.37;61.11;101304.31;5014384;28;20034;-48
2023/06/21 03:08:57;;;;;;;8.60;6.20;;;;;;;23.36;61.41;101312.63;5020910;28;20045;-47
2023/06/21 03:14:44;;;;;;;8.43;6.55;;;;;;;23.37;61.54;101320.63;5020098;28;20061;-46
2023/06/21 03:17:09;;;;;;;6.97;6.05;;;;;;;23.36;61.12;101324.38;5020471;28;20407;-49
2023/06/21 03:19:35;;;;;;;10.05;7.05;;;;;;;23.36;61.22;101337.97;5021637;28;20026;-49
2023/06/21 03:22:00;;;;;;;8.63;6.60;;;;;;;23.35;61.61;101335.41;5023913;28;20041;-49
2023/06/21 03:24:32;;;;;;;8.70;7.13;;;;;;;23.35;61.65;101341.69;5024176;28;20041;-49
2023/06/21 03:26:58;;;;;;;9.40;6.88;;;;;;;23.34;61.78;101342.72;5022173;28;20079;-49
2023/06/21 03:29:23;;;;;;;7.53;6.53;;;;;;;23.32;61.50;101342.03;5022263;28;20033;-48
2023/06/21 03:31:49;;;;;;;11.43;7.03;;;;;;;23.32;61.25;101342.03;5022022;28;20044;-46
2023/06/21 03:34:14;;;;;;;7.05;6.22;;;;;;;23.30;61.25;101344.06;5023606;28;20030;-47
2023/06/21 03:36:40;;;;;;;7.75;6.95;;;;;;;23.31;61.27;101334.91;5022411;28;20065;-49
2023/06/21 03:39:06;;;;;;;9.32;7.18;;;;;;;23.29;61.58;101336.94;5022524;28;20036;-48
2023/06/21 03:41:31;;;;;;;8.38;6.72;;;;;;;23.29;61.46;101338.81;5022821;28;20026;-47
2023/06/21 03:43:57;;;;;;;8.88;6.32;;;;;;;23.28;61.88;101334.38;5022615;28;20057;-49
2023/06/21 03:46:22;;;;;;;9.32;7.00;;;;;;;23.28;61.76;101332.50;5024879;28;20034;-49
2023/06/21 03:48:51;;;;;;;9.23;7.13;;;;;;;23.28;61.72;101337.94;5021548;28;20042;-46
2023/06/21 03:51:17;;;;;;;8.43;7.05;;;;;;;23.29;61.45;101327.94;5022854;28;20132;-49
2023/06/21 03:53:42;;;;;;;8.02;6.78;;;;;;;23.28;61.83;101337.94;5021998;28;20037;-48
2023/06/21 03:56:07;;;;;;;6.78;6.07;;;;;;;23.28;61.98;101339.81;5021901;28;20772;-50
2023/06/21 03:58:33;;;;;;;10.40;7.47;;;;;;;23.27;62.06;101343.56;5022504;28;20033;-47
2023/06/21 04:00:58;;;;;;;7.70;6.90;;;;;;;23.26;62.17;101339.97;5023469;28;20120;-46
2023/06/21 04:03:24;;;;;;;9.15;7.78;;;;;;;23.25;62.26;101356.44;5023318;28;20046;-45
2023/06/21 04:05:49;;;;;;;8.98;7.45;;;;;;;23.23;61.98;101360.19;5018920;28;20041;-48
2023/06/21 04:08:14;;;;;;;8.98;7.32;;;;;;;23.25;61.62;101359.16;5022489;28;20050;-50
2023/06/21 04:10:41;;;;;;;11.48;7.45;;;;;;;23.24;62.15;101366.47;5022357;28;20025;-49
2023/06/21 04:13:07;;;;;;;10.05;7.70;;;;;;;23.22;62.08;101363.09;5021112;28;20052;-47
2023/06/21 04:15:33;;;;;;;11.18;8.20;;;;;;;23.22;62.67;101361.19;5022185;28;20026;-44
2023/06/21 04:17:58;;;;;;;8.65;7.10;;;;;;;23.22;62.30;101357.66;5022757;28;20042;-46
2023/06/21 04:20:24;;;;;;;8.43;7.50;;;;;;;23.22;62.68;101365.78;5021520;28;20041;-46
2023/06/21 04:22:49;;;;;;;11.95;7.38;;;;;;;23.22;62.46;101373.94;5021858;28;20034;-47
2023/06/21 04:25:16;;;;;;;11.35;7.45;;;;;;;23.21;62.37;101369.53;5022706;28;20525;-46
2023/06/21 04:27:45;;;;;;;10.25;7.47;;;;;;;23.21;62.69;101380.41;5022861;28;20037;-49
2023/06/21 04:30:11;;;;;;;8.20;6.57;;;;;;;23.21;62.44;101380.41;5021667;28;20475;-49
2023/06/21 04:32:44;;;;;;;11.10;7.28;;;;;;;23.20;62.38;101384.13;5021506;28;20033;-47
2023/06/21 04:35:10;;;;;;;10.98;7.85;;;;;;;23.20;62.40;101375.97;5021846;28;20030;-48
2023/06/21 04:37:35;;;;;;;11.70;7.53;;;;;;;23.21;62.88;101383.97;5019410;28;20109;-49
2023/06/21 04:40:00;;;;;;;8.23;7.03;;;;;;;23.20;62.99;101378.69;5021891;28;20044;-46
2023/06/21 04:42:26;;;;;;;10.85;7.53;;;;;;;23.20;62.80;101390.41;5022040;28;20038;-47
2023/06/21 04:44:51;;;;;;;9.40;7.45;;;;;;;23.20;62.50;101397.72;5023047;28;20041;-48
2023/06/21 04:47:17;;;;;;;9.68;7.80;;;;;;;23.19;63.03;101390.59;5022013;28;20030;-49
2023/06/21 04:49:43;;;;;;;9.95;8.15;;;;;;;23.18;62.54;101391.59;5020722;28;20072;-49
2023/06/21 04:52:09;;;;;;;9.20;7.43;;;;;;;23.18;62.72;101387.00;5021150;28;20030;-45
2023/06/21 04:54:36;;;;;;;9.98;8.25;;;;;;;23.18;62.97;101391.59;5022229;28;20029;-46
2023/06/21 04:57:04;;;;;;;11.40;8.48;;;;;;;23.18;63.13;101389.72;5020844;28;20042;-49
2023/06/21 04:59:30;;;;;;;10.35;8.40;;;;;;;23.18;63.33;101378.03;5021136;28;20531;-48
2023/06/21 05:01:56;;;;;;;8.27;7.38;;;;;;;23.18;63.29;101383.47;5023570;28;20113;-47
2023/06/21 05:04:21;;;;;;;11.48;9.05;;;;;;;23.17;63.35;101385.34;5018367;28;20044;-49
2023/06/21 05:06:46;;;;;;;11.18;8.63;;;;;;;23.18;63.28;101397.03;5016065;28;20104;-49
2023/06/21 05:09:12;;;;;;;13.18;9.00;;;;;;;23.19;63.39;101404.19;5020882;28;20083;-48
2023/06/21 05:11:37;;;;;;;9.40;8.43;;;;;;;23.17;63.28;101406.19;5020983;28;20022;-48
2023/06/21 05:14:03;;;;;;;10.32;9.00;;;;;;;23.18;63.20;101408.75;5021081;28;20044;-48
2023/06/21 05:16:28;;;;;;;11.25;8.82;;;;;;;23.17;63.63;101414.34;5020536;28;20026;-49
2023/06/21 05:18:54;;;;;;;9.52;8.50;;;;;;;23.18;63.68;101411.47;5022034;28;20034;-47
2023/06/21 05:21:19;;;;;;;10.57;8.93;;;;;;;23.17;63.38;101420.66;5021789;28;20455;-50
2023/06/21 05:23:44;;;;;;;14.13;9.93;;;;;;;23.17;63.67;101415.22;5009746;28;20108;-49
2023/06/21 05:26:10;;;;;;;13.70;8.95;;;;;;;23.18;63.28;101426.91;5020475;28;20041;-48
2023/06/21 05:28:35;;;;;;;10.75;8.68;;;;;;;23.18;63.34;101432.34;5020163;28;20033;-50
2023/06/21 05:31:01;;;;;;;12.52;9.13;;;;;;;23.19;63.96;101444.94;5023612;28;20091;-50
2023/06/21 05:33:27;;;;;;;11.30;9.10;;;;;;;23.18;63.34;101438.63;5018275;28;20392;-49
2023/06/21 05:35:52;;;;;;;12.25;9.65;;;;;;;23.18;63.62;101430.47;5020698;28;20480;-49
2023/06/21 05:38:17;;;;;;;11.27;10.07;;;;;;;23.17;63.63;101431.50;5020534;28;20045;-49
2023/06/21 05:40:43;;;;;;;12.35;9.68;;;;;;;23.18;64.21;101426.91;5027047;28;20175;-49
2023/06/21 05:43:08;;;;;;;11.88;9.98;;;;;;;23.18;63.95;101432.34;5016903;28;20041;-47
2023/06/21 05:45:34;;;;;;;11.32;9.77;;;;;;;23.18;63.87;101432.34;5021018;28;20030;-49
2023/06/21 05:48:00;;;;;;;11.13;9.25;;;;;;;23.17;63.70;101438.78;5021670;28;20029;-48
2023/06/21 05:50:30;;;;;;;12.90;10.65;;;;;;;23.16;63.71;101450.69;5020329;28;20033;-49
2023/06/21 05:52:55;;;;;;;12.93;9.55;;;;;;;23.16;63.77;101443.38;5020114;28;20037;-49
2023/06/21 05:55:21;;;;;;;10.80;8.70;;;;;;;23.17;64.12;101450.53;5019990;28;20033;-50
2023/06/21 05:57:46;;;;;;;12.20;10.10;;;;;;;23.16;63.59;101450.69;5023006;28;20395;-49
2023/06/21 06:00:12;;;;;;;11.13;9.77;;;;;;;23.17;64.19;101463.25;5016844;28;20041;-48
2023/06/21 06:02:37;;;;;;;11.38;9.35;;;;;;;23.17;64.04;101463.25;5019714;28;20033;-50
2023/06/21 06:05:03;;;;;;;11.98;10.10;;;;;;;23.17;64.38;101468.66;5018276;28;20049;-46
2023/06/21 06:07:28;;;;;;;11.25;9.88;;;;;;;23.17;63.95;101468.66;5016993;28;20061;-50
2023/06/21 06:09:55;;;;;;;12.20;10.00;;;;;;;23.17;64.23;101468.66;5019376;28;20038;-50
2023/06/21 06:12:21;;;;;;;11.75;9.75;;;;;;;23.17;64.54;101476.81;5019906;28;20034;-49
2023/06/21 06:14:47;;;;;;;11.57;9.23;;;;;;;23.17;64.37;101483.13;5020397;28;20507;-47
2023/06/21 06:17:13;;;;;;;14.07;10.07;;;;;;;23.16;64.54;101478.69;5020443;28;20026;-48
2023/06/21 06:19:39;;;;;;;11.68;9.98;;;;;;;23.17;64.64;101472.25;5017031;28;20533;-50
2023/06/21 06:22:04;;;;;;;14.32;9.70;;;;;;;23.17;64.44;101471.38;5019959;28;20361;-49
2023/06/21 06:24:29;;;;;;;11.48;9.27;;;;;;;23.18;64.69;101481.25;5018878;28;20040;-45
2023/06/21 06:26:55;;;;;;;12.88;9.20;;;;;;;23.19;64.24;101477.53;5021429;28;20038;-48
2023/06/21 06:29:20;;;;;;;14.23;9.82;;;;;;;23.18;64.54;101482.09;5018791;28;20420;-47
2023/06/21 06:31:46;;;;;;;10.27;9.02;;;;;;;23.20;64.35;101495.53;5019976;28;20076;-46
2023/06/21 06:34:11;;;;;;;12.35;9.52;;;;;;;23.19;64.06;101488.41;5020178;28;20112;-47
2023/06/21 06:36:36;;;;;;;11.32;8.57;;;;;;;23.17;64.52;101495.84;5023748;28;20488;-47
2023/06/21 06:39:02;;;;;;;12.05;8.77;;;;;;;23.18;64.50;101509.25;5019989;28;20045;-45
2023/06/21 06:41:27;;;;;;;10.57;8.52;;;;;;;23.19;64.05;101507.44;5021792;28;20048;-44
2023/06/21 06:43:53;;;;;;;8.27;7.25;;;;;;;23.20;63.73;101506.38;5016440;28;20095;-45
2023/06/21 06:46:18;;;;;;;9.07;7.55;;;;;;;23.20;63.96;101514.53;5016594;28;20034;-45
2023/06/21 06:48:43;;;;;;;10.65;7.75;;;;;;;23.20;64.01;101517.25;5023616;28;20088;-48
2023/06/21 06:51:09;;;;;;;9.52;7.30;;;;;;;23.20;64.06;101528.13;5023820;28;20030;-47
2023/06/21 06:53:34;;;;;;;8.93;7.55;;;;;;;23.19;63.71;101518.28;5020461;28;20049;-48
2023/06/21 06:56:00;;;;;;;9.90;8.05;;;;;;;23.19;63.44;101529.16;5019219;28;20378;-50
2023/06/21 06:58:26;;;;;;;9.27;7.70;;;;;;;23.19;63.62;101532.72;5023559;28;20503;-49
2023/06/21 07:00:52;;;;;;;10.10;7.60;;;;;;;23.21;63.31;101543.44;5023437;28;20028;-48
2023/06/21 07:03:17;;;;;;;9.15;7.63;;;;;;;23.20;63.49;101549.84;5025236;28;20037;-46
2023/06/21 07:05:44;;;;;;;10.68;7.47;;;;;;;23.20;63.03;101547.16;5020235;28;20033;-44
2023/06/21 07:08:10;;;;;;;8.93;8.02;;;;;;;23.20;63.01;101547.16;5021596;28;20060;-44
2023/06/21 07:10:35;;;;;;;9.98;7.32;;;;;;;23.19;63.26;101549.00;5024412;28;20029;-50
2023/06/21 07:13:02;;;;;;;8.98;7.07;;;;;;;23.20;62.88;101549.84;5023470;28;20036;-47
2023/06/21 07:15:28;;;;;;;9.18;7.82;;;;;;;23.20;62.65;101552.56;5023526;28;20061;-48
2023/06/21 07:17:53;;;;;;;8.15;6.88;;;;;;;23.19;62.94;101554.44;5023082;28;20054;-47
2023/06/21 07:20:19;;;;;;;9.82;6.68;;;;;;;23.20;62.54;101549.84;5023609;28;20025;-48
2023/06/21 07:22:44;;;;;;;8.98;6.88;;;;;;;23.20;62.86;101549.84;5022040;28;20033;-49
2023/06/21 07:25:10;;;;;;;7.07;6.38;;;;;;;23.21;62.44;101548.84;5022534;28;20065;-49
2023/06/21 07:27:35;;;;;;;7.50;6.10;;;;;;;23.21;62.61;101541.56;5022519;28;20037;-44
2023/06/21 07:30:02;;;;;;;8.93;6.88;;;;;;;23.21;62.28;101548.84;5023958;28;20386;-46
2023/06/21 07:32:27;;;;;;;10.88;6.85;;;;;;;23.21;62.27;101548.84;5031960;28;20033;-48
2023/06/21 07:34:53;;;;;;;7.13;5.78;;;;;;;23.20;62.32;101547.97;5021417;28;20055;-47
2023/06/21 07:37:19;;;;;;;9.02;5.95;;;;;;;23.21;62.50;101546.97;5020985;28;20021;-48
2023/06/21 07:39:45;;;;;;;8.77;6.28;;;;;;;23.21;62.42;101546.97;5022554;28;20096;-49
2023/06/21 07:42:11;;;;;;;8.30;5.50;;;;;;;23.21;62.43;101557.00;5022358;28;20030;-48
2023/06/21 07:44:37;;;;;;;6.75;6.05;;;;;;;23.21;62.20;101551.56;5019746;28;20045;-46
2023/06/21 07:47:03;;;;;;;7.78;5.53;;;;;;;23.21;62.17;101563.28;5024433;28;20033;-45
2023/06/21 07:49:28;;;;;;;7.50;5.75;;;;;;;23.21;62.38;101557.00;5022952;28;20065;-47
2023/06/21 07:51:54;;;;;;;7.22;5.50;;;;;;;23.22;61.95;101561.41;5015205;28;20088;-47
2023/06/21 07:54:19;;;;;;;8.80;5.97;;;;;;;23.21;61.93;101563.28;5023947;28;20088;-46
2023/06/21 07:56:44;;;;;;;6.07;5.38;;;;;;;23.22;62.30;101558.69;5022193;28;20075;-47
2023/06/21 07:59:10;;;;;;;7.28;5.75;;;;;;;23.22;62.43;101567.69;5021683;28;20061;-47
2023/06/21 08:01:35;;;;;;;7.43;6.00;;;;;;;23.23;62.19;101569.41;5026675;28;20442;-46
2023/06/21 08:04:01;;;;;;;6.65;6.05;;;;;;;23.24;62.07;101567.53;5022373;28;20038;-48
2023/06/21 08:06:27;;;;;;;6.07;5.28;;;;;;;23.23;61.45;101569.41;5019768;28;20086;-46
2023/06/21 08:08:52;;;;;;;8.77;6.82;;;;;;;23.24;61.75;101570.25;5022189;28;20045;-46
2023/06/21 08:11:18;;;;;;;6.13;5.53;;;;;;;23.25;62.00;101571.09;5022674;28;20511;-47
2023/06/21 08:13:43;;;;;;;9.68;6.53;;;;;;;23.25;62.06;101573.81;5023052;28;20055;-47
2023/06/21 08:16:08;;;;;;;8.88;5.47;;;;;;;23.25;61.99;101580.13;5023486;28;20393;-49
2023/06/21 08:18:35;;;;;;;7.13;6.22;;;;;;;23.25;62.23;101587.41;5023527;28;20104;-44
2023/06/21 08:21:00;;;;;;;7.30;5.85;;;;;;;23.25;62.30;101585.56;5023402;28;20389;-48
2023/06/21 08:23:26;;;;;;;6.65;5.90;;;;;;;23.27;61.93;101597.09;5023269;28;20083;-48
2023/06/21 08:25:51;;;;;;;6.47;5.70;;;;;;;23.28;61.66;101584.38;5022716;28;20491;-47
2023/06/21 08:28:17;;;;;;;7.28;5.97;;;;;;;23.28;61.54;101581.66;5023018;28;20369;-48
2023/06/21 08:30:42;;;;;;;7.03;5.82;;;;;;;23.28;61.50;101585.19;5023965;28;20029;-49
2023/06/21 08:33:08;;;;;;;6.45;5.78;;;;;;;23.27;61.60;101588.94;5022804;28;20387;-49
2023/06/21 08:35:33;;;;;;;6.85;6.13;;;;;;;23.29;61.78;101589.63;5021274;28;20425;-49
2023/06/21 08:37:59;;;;;;;6.50;5.82;;;;;;;23.29;61.38;101584.19;5022438;28;20176;-48
2023/06/21 08:40:26;;;;;;;7.75;6.05;;;;;;;23.28;61.34;101587.91;5022957;28;20096;-48
2023/06/21 08:42:55;;;;;;;6.22;5.63;;;;;;;23.28;61.72;101579.78;5023941;28;20464;-47
2023/06/21 08:45:21;;;;;;;7.90;5.47;;;;;;;23.29;60.84;101586.91;5022983;28;20379;-49
2023/06/21 08:47:47;;;;;;;6.40;5.80;;;;;;;23.29;61.46;101580.66;5019831;28;20030;-44
2023/06/21 08:50:16;;;;;;;7.30;5.38;;;;;;;23.30;61.70;101593.19;5022517;28;20037;-47
2023/06/21 08:52:43;;;;;;;5.95;5.20;;;;;;;23.31;61.22;101589.47;5023062;28;20475;-45
2023/06/21 08:55:10;;;;;;;5.32;4.63;;;;;;;23.31;61.41;101594.91;5021723;28;20383;-46
2023/06/21 08:58:16;;;;;;;7.53;5.50;;;;;;;23.35;61.08;101594.41;5022153;28;20041;-45
2023/06/21 09:00:47;;;;;;;8.75;5.30;;;;;;;23.32;61.15;101597.47;5006057;28;20029;-48
2023/06/21 09:03:17;;;;;;;8.50;5.10;;;;;;;23.32;61.26;101596.59;5019404;28;20049;-45
2023/06/21 09:05:49;;;;;;;5.38;4.45;;;;;;;23.33;60.74;101593.72;5018623;28;20460;-45
2023/06/21 09:08:15;;;;;;;5.63;4.68;;;;;;;23.32;60.83;101589.31;5022281;28;20484;-47
2023/06/21 09:10:42;;;;;;;5.07;4.57;;;;;;;23.33;60.51;101599.16;5022114;28;20033;-44
2023/06/21 09:13:09;;;;;;;5.45;4.95;;;;;;;23.33;60.95;101598.31;5021577;28;20041;-49
2023/06/21 09:15:36;;;;;;;5.10;4.65;;;;;;;23.33;60.82;101591.00;5022026;28;20102;-47
2023/06/21 09:18:02;;;;;;;4.78;4.07;;;;;;;23.34;60.32;101600.00;5022071;28;20044;-49
2023/06/21 09:20:28;;;;;;;4.45;4.03;;;;;;;23.34;60.26;101606.31;5021763;28;20034;-46
2023/06/21 09:22:59;;;;;;;5.70;4.32;;;;;;;23.33;60.26;101604.59;5021776;28;20080;-44
2023/06/21 09:25:26;;;;;;;4.20;3.90;;;;;;;23.35;60.25;101607.16;5018419;28;20033;-47
2023/06/21 09:27:55;;;;;;;6.97;4.22;;;;;;;23.35;60.46;101615.31;5023153;28;20491;-49
2023/06/21 09:30:21;;;;;;;4.45;4.05;;;;;;;23.33;60.72;101615.47;5019972;28;20017;-45
2023/06/21 09:32:47;;;;;;;5.32;4.10;;;;;;;23.35;60.03;101610.72;5021701;28;20555;-48
2023/06/21 09:35:15;;;;;;;4.35;3.95;;;;;;;23.34;60.59;101609.03;5022030;28;20029;-47
2023/06/21 09:37:41;;;;;;;5.05;4.35;;;;;;;23.36;60.07;101607.00;5020994;28;20112;-46
2023/06/21 09:40:07;;;;;;;4.88;4.25;;;;;;;23.36;60.50;101614.28;5021090;28;20552;-45
2023/06/21 09:42:39;;;;;;;4.53;3.90;;;;;;;23.36;60.42;101615.16;5021762;28;20044;-48
2023/06/21 09:45:30;;;;;;;4.00;3.58;;;;;;;23.39;60.46;101620.25;5015668;28;20042;-47
2023/06/21 09:47:56;;;;;;;7.78;4.40;;;;;;;23.36;60.33;101620.59;5019748;28;20088;-42
2023/06/21 09:50:21;;;;;;;4.45;3.83;;;;;;;23.38;60.31;101621.28;5017750;28;20061;-44
2023/06/21 09:52:46;;;;;;;4.07;3.67;;;;;;;23.38;59.88;101615.84;5017643;28;20033;-48
2023/06/21 09:55:16;;;;;;;4.90;3.83;;;;;;;23.38;60.12;101618.56;5020372;28;20033;-47
2023/06/21 09:57:41;;;;;;;4.80;3.60;;;;;;;23.38;60.36;101624.00;5021039;28;20041;-46
2023/06/21 10:00:08;;;;;;;5.03;3.75;;;;;;;23.39;59.86;101627.56;5019347;28;20042;-48
2023/06/21 10:02:43;;;;;;;4.07;3.67;;;;;;;23.39;59.93;101625.69;5020182;28;20034;-47
2023/06/21 10:05:19;;;;;;;6.40;4.00;;;;;;;23.40;60.21;101626.56;5018828;28;20045;-47
2023/06/21 10:07:45;;;;;;;5.50;3.58;;;;;;;23.39;59.94;101625.69;5018510;28;20521;-49
2023/06/21 10:10:11;;;;;;;4.25;3.58;;;;;;;23.39;59.68;101632.97;5020739;28;20034;-48
2023/06/21 10:12:37;;;;;;;4.38;3.30;;;;;;;23.40;59.74;101632.81;5022396;28;21061;-45
2023/06/21 10:15:04;;;;;;;4.32;3.55;;;;;;;23.39;59.57;101641.97;5020273;28;20037;-49
2023/06/21 10:17:31;;;;;;;4.13;3.45;;;;;;;23.40;59.92;101646.41;5019922;28;20044;-48
2023/06/21 10:19:58;;;;;;;3.47;3.03;;;;;;;23.40;59.83;101638.25;5020859;28;20026;-45
2023/06/21 10:22:25;;;;;;;4.32;3.80;;;;;;;23.42;59.37;101654.41;5019884;28;20120;-48
2023/06/21 10:24:52;;;;;;;3.78;3.47;;;;;;;23.42;59.59;101657.13;5019609;28;20145;-48
2023/06/21 10:27:19;;;;;;;4.75;2.83;;;;;;;23.42;59.23;101662.56;5020004;28;20079;-47
2023/06/21 10:29:48;;;;;;;5.53;3.50;;;;;;;23.42;58.91;101651.69;5020662;28;20056;-48
2023/06/21 10:32:15;;;;;;;3.83;3.08;;;;;;;23.42;59.12;101657.97;5023108;28;20030;-46
2023/06/21 10:34:49;;;;;;;4.55;3.00;;;;;;;23.42;58.90;101659.84;5019979;28;20371;-45
2023/06/21 10:37:29;;;;;;;3.90;3.10;;;;;;;23.44;59.01;101657.81;5019825;28;20087;-49
2023/06/21 10:40:01;;;;;;;4.10;2.85;;;;;;;23.45;59.23;101672.25;5015981;28;20546;-46
2023/06/21 10:42:29;;;;;;;2.70;2.50;;;;;;;23.46;59.07;101663.09;5018011;28;20065;-46
2023/06/21 10:44:57;;;;;;;3.25;2.60;;;;;;;23.46;58.78;101671.25;5019065;28;20025;-48
2023/06/21 10:47:24;;;;;;;3.53;3.15;;;;;;;23.46;58.47;101674.81;5019547;28;20034;-48
2023/06/21 10:49:50;;;;;;;4.15;2.42;;;;;;;23.45;58.65;101673.09;5022987;28;20380;-46
2023/06/21 10:52:16;;;;;;;3.72;2.50;;;;;;;23.47;59.11;101673.78;5018409;28;20032;-47
2023/06/21 10:54:44;;;;;;;2.70;2.40;;;;;;;23.47;58.80;101681.09;5019367;28;20041;-44
2023/06/21 10:57:10;;;;;;;2.78;2.50;;;;;;;23.48;59.01;101682.81;5018528;28;20025;-47
2023/06/21 10:59:36;;;;;;;3.35;2.78;;;;;;;23.48;58.51;101672.78;5020046;28;20487;-45
2023/06/21 11:02:02;;;;;;;3.97;2.65;;;;;;;23.48;58.71;101671.94;5018179;28;20594;-46
2023/06/21 11:04:27;;;;;;;4.05;2.55;;;;;;;23.49;58.49;101674.47;5019817;28;20041;-44
2023/06/21 11:07:00;;;;;;;3.08;2.20;;;;;;;23.50;58.69;101673.47;5016128;28;20084;-45
2023/06/21 11:09:25;;;;;;;3.97;2.47;;;;;;;23.51;58.54;101677.03;5017085;28;20038;-43
2023/06/21 11:11:53;;;;;;;2.92;2.70;;;;;;;23.50;58.25;101680.78;5014938;28;20049;-48
2023/06/21 11:14:28;;;;;;;3.42;2.67;;;;;;;23.51;58.43;101682.47;5019621;28;20419;-49
2023/06/21 11:17:16;;;;;;;3.55;2.20;;;;;;;23.54;58.22;101684.88;5017481;28;20445;-44
2023/06/21 11:19:47;;;;;;;3.03;2.38;;;;;;;23.53;58.42;101691.31;5020049;28;20105;-47
2023/06/21 11:22:24;;;;;;;2.83;2.45;;;;;;;23.54;58.44;101683.00;5021449;28;20444;-43
2023/06/21 11:24:57;;;;;;;2.35;2.15;;;;;;;23.53;57.98;101677.72;5018798;28;20026;-47
2023/06/21 11:27:25;;;;;;;4.18;2.35;;;;;;;23.54;58.38;101682.16;5017327;28;20029;-48